sensor_id;sensor_type;location;lat;lon;timestamp;P1;durP1;ratioP1;P2;durP2;ratioP2
8232;SDS011;4157;48.074;9.952;2022-10-13T00:00:37;19.83;;;13.93;;
8232;SDS011;4157;48.074;9.952;2022-10-13T00:03:05;22.70;;;13.18;;
8232;SDS011;4157;48.074;9.952;2022-10-13T00:05:33;19.52;;;13.05;;
8232;SDS011;4157;48.074;9.952;2022-10-13T00:08:01;19.63;;;13.20;;
8232;SDS011;4157;48.074;9.952;2022-10-13T00:10:29;21.77;;;14.35;;
8232;SDS011;4157;48.074;9.952;2022-10-13T00:12:57;21.92;;;14.10;;
8232;SDS011;4157;48.074;9.952;2022-10-13T00:15:26;24.77;;;14.63;;
8232;SDS011;4157;48.074;9.952;2022-10-13T00:17:54;20.85;;;14.13;;
8232;SDS011;4157;48.074;9.952;2022-10-13T00:20:22;20.67;;;13.75;;
8232;SDS011;4157;48.074;9.952;2022-10-13T00:22:49;21.23;;;13.90;;
8232;SDS011;4157;48.074;9.952;2022-10-13T00:25:17;23.75;;;13.38;;
8232;SDS011;4157;48.074;9.952;2022-10-13T00:27:45;22.27;;;14.38;;
8232;SDS011;4157;48.074;9.952;2022-10-13T00:30:13;18.58;;;12.98;;
8232;SDS011;4157;48.074;9.952;2022-10-13T00:32:43;21.42;;;13.40;;
8232;SDS011;4157;48.074;9.952;2022-10-13T00:35:10;18.95;;;13.52;;
8232;SDS011;4157;48.074;9.952;2022-10-13T00:37:38;20.15;;;13.68;;
8232;SDS011;4157;48.074;9.952;2022-10-13T00:40:06;18.92;;;12.70;;
8232;SDS011;4157;48.074;9.952;2022-10-13T00:42:34;20.42;;;14.02;;
8232;SDS011;4157;48.074;9.952;2022-10-13T00:45:05;23.92;;;13.23;;
8232;SDS011;4157;48.074;9.952;2022-10-13T00:47:35;20.40;;;14.48;;
8232;SDS011;4157;48.074;9.952;2022-10-13T00:50:05;24.27;;;14.73;;
8232;SDS011;4157;48.074;9.952;2022-10-13T00:52:33;20.58;;;13.38;;
8232;SDS011;4157;48.074;9.952;2022-10-13T00:55:03;22.15;;;13.02;;
8232;SDS011;4157;48.074;9.952;2022-10-13T00:57:32;24.48;;;14.02;;
8232;SDS011;4157;48.074;9.952;2022-10-13T01:00:00;22.40;;;14.00;;
8232;SDS011;4157;48.074;9.952;2022-10-13T01:02:31;20.63;;;12.98;;
8232;SDS011;4157;48.074;9.952;2022-10-13T01:05:01;19.67;;;13.50;;
8232;SDS011;4157;48.074;9.952;2022-10-13T01:07:30;18.17;;;12.55;;
8232;SDS011;4157;48.074;9.952;2022-10-13T01:09:59;18.85;;;12.57;;
8232;SDS011;4157;48.074;9.952;2022-10-13T01:12:31;19.15;;;13.38;;
8232;SDS011;4157;48.074;9.952;2022-10-13T01:15:02;21.02;;;11.75;;
8232;SDS011;4157;48.074;9.952;2022-10-13T01:17:32;22.85;;;13.13;;
8232;SDS011;4157;48.074;9.952;2022-10-13T01:23:08;25.13;;;14.85;;
8232;SDS011;4157;48.074;9.952;2022-10-13T01:25:43;19.15;;;13.32;;
8232;SDS011;4157;48.074;9.952;2022-10-13T01:28:20;17.77;;;12.90;;
8232;SDS011;4157;48.074;9.952;2022-10-13T01:30:54;19.85;;;13.30;;
8232;SDS011;4157;48.074;9.952;2022-10-13T01:33:25;20.20;;;13.60;;
8232;SDS011;4157;48.074;9.952;2022-10-13T01:36:00;22.02;;;14.25;;
8232;SDS011;4157;48.074;9.952;2022-10-13T01:38:33;22.92;;;14.90;;
8232;SDS011;4157;48.074;9.952;2022-10-13T01:41:04;26.20;;;17.65;;
8232;SDS011;4157;48.074;9.952;2022-10-13T01:43:35;25.55;;;17.85;;
8232;SDS011;4157;48.074;9.952;2022-10-13T01:46:06;28.17;;;19.10;;
8232;SDS011;4157;48.074;9.952;2022-10-13T01:48:36;27.73;;;19.05;;
8232;SDS011;4157;48.074;9.952;2022-10-13T01:51:04;31.25;;;19.83;;
8232;SDS011;4157;48.074;9.952;2022-10-13T01:53:32;26.52;;;18.95;;
8232;SDS011;4157;48.074;9.952;2022-10-13T01:56:00;29.20;;;20.27;;
8232;SDS011;4157;48.074;9.952;2022-10-13T01:58:29;27.95;;;18.40;;
8232;SDS011;4157;48.074;9.952;2022-10-13T02:01:01;29.25;;;17.48;;
8232;SDS011;4157;48.074;9.952;2022-10-13T02:03:33;28.00;;;19.55;;
8232;SDS011;4157;48.074;9.952;2022-10-13T02:06:04;30.35;;;18.15;;
8232;SDS011;4157;48.074;9.952;2022-10-13T02:08:37;26.95;;;17.63;;
8232;SDS011;4157;48.074;9.952;2022-10-13T02:11:08;26.70;;;16.77;;
8232;SDS011;4157;48.074;9.952;2022-10-13T02:13:39;29.40;;;18.58;;
8232;SDS011;4157;48.074;9.952;2022-10-13T02:16:08;29.63;;;19.42;;
8232;SDS011;4157;48.074;9.952;2022-10-13T02:18:37;25.88;;;17.88;;
8232;SDS011;4157;48.074;9.952;2022-10-13T02:21:05;24.45;;;17.75;;
8232;SDS011;4157;48.074;9.952;2022-10-13T02:23:33;28.80;;;18.70;;
8232;SDS011;4157;48.074;9.952;2022-10-13T02:26:01;27.00;;;17.55;;
8232;SDS011;4157;48.074;9.952;2022-10-13T02:28:29;22.35;;;16.35;;
8232;SDS011;4157;48.074;9.952;2022-10-13T02:30:57;26.50;;;16.67;;
8232;SDS011;4157;48.074;9.952;2022-10-13T02:33:24;26.10;;;17.10;;
8232;SDS011;4157;48.074;9.952;2022-10-13T02:35:53;27.83;;;17.52;;
8232;SDS011;4157;48.074;9.952;2022-10-13T02:38:21;25.48;;;17.58;;
8232;SDS011;4157;48.074;9.952;2022-10-13T02:40:49;26.50;;;17.60;;
8232;SDS011;4157;48.074;9.952;2022-10-13T02:43:20;27.75;;;18.67;;
8232;SDS011;4157;48.074;9.952;2022-10-13T02:45:47;25.35;;;17.05;;
8232;SDS011;4157;48.074;9.952;2022-10-13T02:48:15;26.83;;;19.42;;
8232;SDS011;4157;48.074;9.952;2022-10-13T02:50:43;26.15;;;17.08;;
8232;SDS011;4157;48.074;9.952;2022-10-13T02:53:12;25.33;;;18.45;;
8232;SDS011;4157;48.074;9.952;2022-10-13T02:55:40;26.90;;;18.42;;
8232;SDS011;4157;48.074;9.952;2022-10-13T02:58:07;22.50;;;17.33;;
8232;SDS011;4157;48.074;9.952;2022-10-13T03:00:35;25.83;;;18.08;;
8232;SDS011;4157;48.074;9.952;2022-10-13T03:03:04;29.27;;;18.95;;
8232;SDS011;4157;48.074;9.952;2022-10-13T03:05:31;26.92;;;18.70;;
8232;SDS011;4157;48.074;9.952;2022-10-13T03:07:59;25.88;;;17.02;;
8232;SDS011;4157;48.074;9.952;2022-10-13T03:10:28;30.83;;;19.42;;
8232;SDS011;4157;48.074;9.952;2022-10-13T03:12:56;27.33;;;17.83;;
8232;SDS011;4157;48.074;9.952;2022-10-13T03:15:24;26.80;;;17.17;;
8232;SDS011;4157;48.074;9.952;2022-10-13T03:17:54;24.77;;;17.52;;
8232;SDS011;4157;48.074;9.952;2022-10-13T03:20:22;23.60;;;16.08;;
8232;SDS011;4157;48.074;9.952;2022-10-13T03:22:50;23.23;;;16.60;;
8232;SDS011;4157;48.074;9.952;2022-10-13T03:25:17;25.65;;;16.08;;
8232;SDS011;4157;48.074;9.952;2022-10-13T03:27:46;24.80;;;17.77;;
8232;SDS011;4157;48.074;9.952;2022-10-13T03:30:14;25.38;;;17.08;;
8232;SDS011;4157;48.074;9.952;2022-10-13T03:32:42;27.88;;;18.20;;
8232;SDS011;4157;48.074;9.952;2022-10-13T03:35:10;28.33;;;18.92;;
8232;SDS011;4157;48.074;9.952;2022-10-13T03:37:37;27.98;;;18.67;;
8232;SDS011;4157;48.074;9.952;2022-10-13T03:40:06;27.90;;;17.70;;
8232;SDS011;4157;48.074;9.952;2022-10-13T03:42:34;24.40;;;16.70;;
8232;SDS011;4157;48.074;9.952;2022-10-13T03:45:03;28.17;;;17.48;;
8232;SDS011;4157;48.074;9.952;2022-10-13T03:47:35;27.92;;;18.20;;
8232;SDS011;4157;48.074;9.952;2022-10-13T03:50:03;28.77;;;18.50;;
8232;SDS011;4157;48.074;9.952;2022-10-13T03:52:31;27.42;;;18.48;;
8232;SDS011;4157;48.074;9.952;2022-10-13T03:54:59;29.40;;;18.73;;
8232;SDS011;4157;48.074;9.952;2022-10-13T03:57:26;25.10;;;16.55;;
8232;SDS011;4157;48.074;9.952;2022-10-13T03:59:54;25.98;;;17.38;;
8232;SDS011;4157;48.074;9.952;2022-10-13T04:02:27;27.90;;;17.63;;
8232;SDS011;4157;48.074;9.952;2022-10-13T04:04:57;26.83;;;17.17;;
8232;SDS011;4157;48.074;9.952;2022-10-13T04:07:24;25.58;;;18.20;;
8232;SDS011;4157;48.074;9.952;2022-10-13T04:09:52;25.02;;;16.88;;
8232;SDS011;4157;48.074;9.952;2022-10-13T04:12:20;25.80;;;17.30;;
8232;SDS011;4157;48.074;9.952;2022-10-13T04:14:47;23.83;;;16.52;;
8232;SDS011;4157;48.074;9.952;2022-10-13T04:17:15;30.60;;;18.90;;
8232;SDS011;4157;48.074;9.952;2022-10-13T04:19:44;29.48;;;17.58;;
8232;SDS011;4157;48.074;9.952;2022-10-13T04:22:12;25.83;;;18.20;;
8232;SDS011;4157;48.074;9.952;2022-10-13T04:24:40;28.95;;;18.65;;
8232;SDS011;4157;48.074;9.952;2022-10-13T04:27:07;25.15;;;16.55;;
8232;SDS011;4157;48.074;9.952;2022-10-13T04:29:35;22.65;;;15.35;;
8232;SDS011;4157;48.074;9.952;2022-10-13T04:32:03;25.15;;;17.80;;
8232;SDS011;4157;48.074;9.952;2022-10-13T04:34:31;25.80;;;16.70;;
8232;SDS011;4157;48.074;9.952;2022-10-13T04:37:00;27.65;;;17.55;;
8232;SDS011;4157;48.074;9.952;2022-10-13T04:39:27;25.73;;;16.48;;
8232;SDS011;4157;48.074;9.952;2022-10-13T04:41:55;23.40;;;18.08;;
8232;SDS011;4157;48.074;9.952;2022-10-13T04:44:23;24.63;;;17.13;;
8232;SDS011;4157;48.074;9.952;2022-10-13T04:46:51;29.45;;;19.50;;
8232;SDS011;4157;48.074;9.952;2022-10-13T04:49:19;23.90;;;17.80;;
8232;SDS011;4157;48.074;9.952;2022-10-13T04:51:46;26.65;;;17.33;;
8232;SDS011;4157;48.074;9.952;2022-10-13T04:54:15;30.55;;;18.25;;
8232;SDS011;4157;48.074;9.952;2022-10-13T04:56:43;29.20;;;17.85;;
8232;SDS011;4157;48.074;9.952;2022-10-13T04:59:11;22.70;;;17.00;;
8232;SDS011;4157;48.074;9.952;2022-10-13T05:01:38;26.42;;;17.27;;
8232;SDS011;4157;48.074;9.952;2022-10-13T05:04:11;24.02;;;17.40;;
8232;SDS011;4157;48.074;9.952;2022-10-13T05:06:39;25.95;;;16.83;;
8232;SDS011;4157;48.074;9.952;2022-10-13T05:09:08;28.15;;;18.52;;
8232;SDS011;4157;48.074;9.952;2022-10-13T05:11:37;27.23;;;18.42;;
8232;SDS011;4157;48.074;9.952;2022-10-13T05:14:04;25.80;;;16.98;;
8232;SDS011;4157;48.074;9.952;2022-10-13T05:16:32;26.70;;;18.17;;
8232;SDS011;4157;48.074;9.952;2022-10-13T05:19:00;25.15;;;17.48;;
8232;SDS011;4157;48.074;9.952;2022-10-13T05:21:28;26.48;;;17.73;;
8232;SDS011;4157;48.074;9.952;2022-10-13T05:23:56;28.23;;;17.33;;
8232;SDS011;4157;48.074;9.952;2022-10-13T05:26:25;28.90;;;16.55;;
8232;SDS011;4157;48.074;9.952;2022-10-13T05:28:55;28.83;;;18.33;;
8232;SDS011;4157;48.074;9.952;2022-10-13T05:31:24;30.80;;;18.77;;
8232;SDS011;4157;48.074;9.952;2022-10-13T05:33:52;29.13;;;17.15;;
8232;SDS011;4157;48.074;9.952;2022-10-13T05:36:21;27.38;;;17.60;;
8232;SDS011;4157;48.074;9.952;2022-10-13T05:38:49;26.00;;;17.88;;
8232;SDS011;4157;48.074;9.952;2022-10-13T05:41:18;26.08;;;17.23;;
8232;SDS011;4157;48.074;9.952;2022-10-13T05:43:46;28.08;;;16.83;;
8232;SDS011;4157;48.074;9.952;2022-10-13T05:46:15;29.20;;;18.02;;
8232;SDS011;4157;48.074;9.952;2022-10-13T05:48:43;26.77;;;17.05;;
8232;SDS011;4157;48.074;9.952;2022-10-13T05:51:11;25.40;;;17.05;;
8232;SDS011;4157;48.074;9.952;2022-10-13T05:53:40;31.00;;;17.80;;
8232;SDS011;4157;48.074;9.952;2022-10-13T05:56:10;30.42;;;18.02;;
8232;SDS011;4157;48.074;9.952;2022-10-13T05:58:39;32.58;;;18.42;;
8232;SDS011;4157;48.074;9.952;2022-10-13T06:01:09;30.23;;;18.83;;
8232;SDS011;4157;48.074;9.952;2022-10-13T06:03:39;27.90;;;17.63;;
8232;SDS011;4157;48.074;9.952;2022-10-13T06:06:07;28.42;;;17.50;;
8232;SDS011;4157;48.074;9.952;2022-10-13T06:08:36;25.83;;;16.60;;
8232;SDS011;4157;48.074;9.952;2022-10-13T06:11:04;26.65;;;17.27;;
8232;SDS011;4157;48.074;9.952;2022-10-13T06:13:32;24.77;;;18.08;;
8232;SDS011;4157;48.074;9.952;2022-10-13T06:15:59;28.42;;;17.13;;
8232;SDS011;4157;48.074;9.952;2022-10-13T06:18:28;30.38;;;17.30;;
8232;SDS011;4157;48.074;9.952;2022-10-13T06:20:57;25.40;;;16.60;;
8232;SDS011;4157;48.074;9.952;2022-10-13T06:23:25;24.50;;;15.77;;
8232;SDS011;4157;48.074;9.952;2022-10-13T06:25:53;25.98;;;18.60;;
8232;SDS011;4157;48.074;9.952;2022-10-13T06:28:20;27.45;;;16.73;;
8232;SDS011;4157;48.074;9.952;2022-10-13T06:30:48;32.50;;;17.50;;
8232;SDS011;4157;48.074;9.952;2022-10-13T06:33:21;26.77;;;16.13;;
8232;SDS011;4157;48.074;9.952;2022-10-13T06:35:49;25.98;;;16.67;;
8232;SDS011;4157;48.074;9.952;2022-10-13T06:38:18;29.15;;;17.17;;
8232;SDS011;4157;48.074;9.952;2022-10-13T06:40:47;32.58;;;17.15;;
8232;SDS011;4157;48.074;9.952;2022-10-13T06:43:14;27.45;;;16.40;;
8232;SDS011;4157;48.074;9.952;2022-10-13T06:45:42;25.65;;;16.77;;
8232;SDS011;4157;48.074;9.952;2022-10-13T06:48:10;29.77;;;17.42;;
8232;SDS011;4157;48.074;9.952;2022-10-13T06:50:37;28.30;;;17.15;;
8232;SDS011;4157;48.074;9.952;2022-10-13T06:53:05;25.45;;;16.13;;
8232;SDS011;4157;48.074;9.952;2022-10-13T06:55:34;26.90;;;13.68;;
8232;SDS011;4157;48.074;9.952;2022-10-13T06:58:02;26.10;;;15.93;;
8232;SDS011;4157;48.074;9.952;2022-10-13T07:00:29;27.98;;;16.25;;
8232;SDS011;4157;48.074;9.952;2022-10-13T07:02:57;27.75;;;16.08;;
8232;SDS011;4157;48.074;9.952;2022-10-13T07:05:25;26.23;;;16.13;;
8232;SDS011;4157;48.074;9.952;2022-10-13T07:07:53;23.10;;;14.52;;
8232;SDS011;4157;48.074;9.952;2022-10-13T07:10:21;26.00;;;14.70;;
8232;SDS011;4157;48.074;9.952;2022-10-13T07:12:50;23.13;;;14.52;;
8232;SDS011;4157;48.074;9.952;2022-10-13T07:15:17;29.10;;;14.45;;
8232;SDS011;4157;48.074;9.952;2022-10-13T07:17:48;24.38;;;14.57;;
8232;SDS011;4157;48.074;9.952;2022-10-13T07:20:18;26.98;;;15.13;;
8232;SDS011;4157;48.074;9.952;2022-10-13T07:22:46;29.92;;;15.98;;
8232;SDS011;4157;48.074;9.952;2022-10-13T07:25:14;24.52;;;15.30;;
8232;SDS011;4157;48.074;9.952;2022-10-13T07:27:42;29.42;;;16.20;;
8232;SDS011;4157;48.074;9.952;2022-10-13T07:30:11;28.60;;;16.85;;
8232;SDS011;4157;48.074;9.952;2022-10-13T07:32:39;28.23;;;15.23;;
8232;SDS011;4157;48.074;9.952;2022-10-13T07:35:08;23.23;;;14.40;;
8232;SDS011;4157;48.074;9.952;2022-10-13T07:37:36;30.08;;;16.70;;
8232;SDS011;4157;48.074;9.952;2022-10-13T07:40:04;33.65;;;16.52;;
8232;SDS011;4157;48.074;9.952;2022-10-13T07:42:32;28.20;;;17.20;;
8232;SDS011;4157;48.074;9.952;2022-10-13T07:45:00;23.70;;;15.93;;
8232;SDS011;4157;48.074;9.952;2022-10-13T07:47:31;23.05;;;14.75;;
8232;SDS011;4157;48.074;9.952;2022-10-13T07:49:58;28.10;;;16.30;;
8232;SDS011;4157;48.074;9.952;2022-10-13T07:52:26;27.42;;;16.00;;
8232;SDS011;4157;48.074;9.952;2022-10-13T07:54:54;26.77;;;16.10;;
8232;SDS011;4157;48.074;9.952;2022-10-13T07:57:24;25.30;;;15.55;;
8232;SDS011;4157;48.074;9.952;2022-10-13T07:59:52;29.55;;;16.52;;
8232;SDS011;4157;48.074;9.952;2022-10-13T08:02:19;24.20;;;16.17;;
8232;SDS011;4157;48.074;9.952;2022-10-13T08:04:48;23.90;;;14.00;;
8232;SDS011;4157;48.074;9.952;2022-10-13T08:07:16;28.98;;;16.58;;
8232;SDS011;4157;48.074;9.952;2022-10-13T08:09:44;28.88;;;15.68;;
8232;SDS011;4157;48.074;9.952;2022-10-13T08:12:12;27.58;;;15.90;;
8232;SDS011;4157;48.074;9.952;2022-10-13T08:14:40;24.98;;;14.43;;
8232;SDS011;4157;48.074;9.952;2022-10-13T08:17:07;30.70;;;15.85;;
8232;SDS011;4157;48.074;9.952;2022-10-13T08:19:35;23.30;;;14.88;;
8232;SDS011;4157;48.074;9.952;2022-10-13T08:22:04;22.55;;;13.68;;
8232;SDS011;4157;48.074;9.952;2022-10-13T08:24:33;25.17;;;14.07;;
8232;SDS011;4157;48.074;9.952;2022-10-13T08:27:00;21.52;;;13.88;;
8232;SDS011;4157;48.074;9.952;2022-10-13T08:29:28;28.05;;;14.88;;
8232;SDS011;4157;48.074;9.952;2022-10-13T08:31:56;23.38;;;15.10;;
8232;SDS011;4157;48.074;9.952;2022-10-13T08:34:23;20.83;;;13.80;;
8232;SDS011;4157;48.074;9.952;2022-10-13T08:36:51;22.63;;;14.55;;
8232;SDS011;4157;48.074;9.952;2022-10-13T08:39:23;22.60;;;15.32;;
8232;SDS011;4157;48.074;9.952;2022-10-13T08:41:51;23.98;;;14.45;;
8232;SDS011;4157;48.074;9.952;2022-10-13T08:44:20;29.20;;;13.88;;
8232;SDS011;4157;48.074;9.952;2022-10-13T08:46:50;23.80;;;14.43;;
8232;SDS011;4157;48.074;9.952;2022-10-13T08:49:20;21.35;;;13.25;;
8232;SDS011;4157;48.074;9.952;2022-10-13T08:51:48;24.85;;;14.50;;
8232;SDS011;4157;48.074;9.952;2022-10-13T08:54:15;25.70;;;14.77;;
8232;SDS011;4157;48.074;9.952;2022-10-13T08:56:47;25.80;;;14.13;;
8232;SDS011;4157;48.074;9.952;2022-10-13T08:59:15;22.90;;;14.35;;
8232;SDS011;4157;48.074;9.952;2022-10-13T09:01:44;27.05;;;13.60;;
8232;SDS011;4157;48.074;9.952;2022-10-13T09:04:23;24.02;;;14.25;;
8232;SDS011;4157;48.074;9.952;2022-10-13T09:06:52;20.02;;;12.70;;
8232;SDS011;4157;48.074;9.952;2022-10-13T09:09:21;22.15;;;13.13;;
8232;SDS011;4157;48.074;9.952;2022-10-13T09:11:50;22.02;;;13.55;;
8232;SDS011;4157;48.074;9.952;2022-10-13T09:14:19;21.40;;;13.25;;
8232;SDS011;4157;48.074;9.952;2022-10-13T09:16:47;18.45;;;12.68;;
8232;SDS011;4157;48.074;9.952;2022-10-13T09:19:19;23.55;;;12.52;;
8232;SDS011;4157;48.074;9.952;2022-10-13T09:21:48;23.52;;;13.13;;
8232;SDS011;4157;48.074;9.952;2022-10-13T09:24:16;24.42;;;13.73;;
8232;SDS011;4157;48.074;9.952;2022-10-13T09:26:46;22.55;;;13.20;;
8232;SDS011;4157;48.074;9.952;2022-10-13T09:29:17;20.30;;;12.98;;
8232;SDS011;4157;48.074;9.952;2022-10-13T09:31:45;22.70;;;13.07;;
8232;SDS011;4157;48.074;9.952;2022-10-13T09:34:14;25.75;;;13.90;;
8232;SDS011;4157;48.074;9.952;2022-10-13T09:36:55;22.10;;;13.68;;
8232;SDS011;4157;48.074;9.952;2022-10-13T09:39:23;21.08;;;12.85;;
8232;SDS011;4157;48.074;9.952;2022-10-13T09:41:50;24.38;;;13.48;;
8232;SDS011;4157;48.074;9.952;2022-10-13T09:44:25;19.98;;;13.57;;
8232;SDS011;4157;48.074;9.952;2022-10-13T09:46:54;19.98;;;12.80;;
8232;SDS011;4157;48.074;9.952;2022-10-13T09:49:34;22.20;;;13.82;;
8232;SDS011;4157;48.074;9.952;2022-10-13T09:52:05;23.63;;;16.30;;
8232;SDS011;4157;48.074;9.952;2022-10-13T09:54:41;20.88;;;12.68;;
8232;SDS011;4157;48.074;9.952;2022-10-13T09:57:11;23.23;;;13.55;;
8232;SDS011;4157;48.074;9.952;2022-10-13T09:59:44;21.65;;;13.50;;
8232;SDS011;4157;48.074;9.952;2022-10-13T10:02:14;22.63;;;12.20;;
8232;SDS011;4157;48.074;9.952;2022-10-13T10:04:44;21.50;;;13.30;;
8232;SDS011;4157;48.074;9.952;2022-10-13T10:07:13;21.65;;;11.88;;
8232;SDS011;4157;48.074;9.952;2022-10-13T10:09:43;21.05;;;11.95;;
8232;SDS011;4157;48.074;9.952;2022-10-13T10:12:14;20.45;;;11.40;;
8232;SDS011;4157;48.074;9.952;2022-10-13T10:14:44;20.95;;;11.40;;
8232;SDS011;4157;48.074;9.952;2022-10-13T10:17:15;18.95;;;11.13;;
8232;SDS011;4157;48.074;9.952;2022-10-13T10:19:47;18.42;;;11.07;;
8232;SDS011;4157;48.074;9.952;2022-10-13T10:24:47;17.10;;;11.65;;
8232;SDS011;4157;48.074;9.952;2022-10-13T10:27:16;21.85;;;12.65;;
8232;SDS011;4157;48.074;9.952;2022-10-13T10:29:47;22.00;;;12.43;;
8232;SDS011;4157;48.074;9.952;2022-10-13T10:32:26;51.22;;;42.35;;
8232;SDS011;4157;48.074;9.952;2022-10-13T10:34:56;35.92;;;28.33;;
8232;SDS011;4157;48.074;9.952;2022-10-13T10:37:30;21.02;;;12.85;;
8232;SDS011;4157;48.074;9.952;2022-10-13T10:40:04;18.85;;;12.50;;
8232;SDS011;4157;48.074;9.952;2022-10-13T10:42:43;21.25;;;12.70;;
8232;SDS011;4157;48.074;9.952;2022-10-13T10:45:16;25.15;;;12.88;;
8232;SDS011;4157;48.074;9.952;2022-10-13T10:47:45;20.55;;;13.18;;
8232;SDS011;4157;48.074;9.952;2022-10-13T10:50:14;18.65;;;12.90;;
8232;SDS011;4157;48.074;9.952;2022-10-13T10:52:45;22.65;;;12.75;;
8232;SDS011;4157;48.074;9.952;2022-10-13T10:55:16;19.88;;;13.45;;
8232;SDS011;4157;48.074;9.952;2022-10-13T10:57:49;24.75;;;11.23;;
8232;SDS011;4157;48.074;9.952;2022-10-13T11:00:19;20.33;;;11.00;;
8232;SDS011;4157;48.074;9.952;2022-10-13T11:02:49;19.48;;;11.85;;
8232;SDS011;4157;48.074;9.952;2022-10-13T11:05:19;17.20;;;11.38;;
8232;SDS011;4157;48.074;9.952;2022-10-13T11:07:54;18.58;;;10.80;;
8232;SDS011;4157;48.074;9.952;2022-10-13T11:10:22;17.85;;;11.10;;
8232;SDS011;4157;48.074;9.952;2022-10-13T11:15:53;16.80;;;11.27;;
8232;SDS011;4157;48.074;9.952;2022-10-13T11:21:03;21.52;;;13.18;;
8232;SDS011;4157;48.074;9.952;2022-10-13T11:23:32;16.75;;;11.15;;
8232;SDS011;4157;48.074;9.952;2022-10-13T11:26:18;22.17;;;12.00;;
8232;SDS011;4157;48.074;9.952;2022-10-13T11:28:46;23.08;;;12.35;;
8232;SDS011;4157;48.074;9.952;2022-10-13T11:31:29;19.88;;;12.43;;
8232;SDS011;4157;48.074;9.952;2022-10-13T11:33:58;20.55;;;12.73;;
8232;SDS011;4157;48.074;9.952;2022-10-13T11:36:37;23.38;;;13.27;;
8232;SDS011;4157;48.074;9.952;2022-10-13T11:39:15;20.42;;;13.27;;
8232;SDS011;4157;48.074;9.952;2022-10-13T11:41:46;19.77;;;12.70;;
8232;SDS011;4157;48.074;9.952;2022-10-13T11:44:16;18.23;;;12.05;;
8232;SDS011;4157;48.074;9.952;2022-10-13T11:46:52;24.02;;;13.15;;
8232;SDS011;4157;48.074;9.952;2022-10-13T11:52:11;21.88;;;13.75;;
8232;SDS011;4157;48.074;9.952;2022-10-13T11:54:46;24.00;;;12.52;;
8232;SDS011;4157;48.074;9.952;2022-10-13T11:57:18;19.42;;;13.02;;
8232;SDS011;4157;48.074;9.952;2022-10-13T11:59:47;24.05;;;14.45;;
8232;SDS011;4157;48.074;9.952;2022-10-13T12:02:18;20.55;;;14.73;;
8232;SDS011;4157;48.074;9.952;2022-10-13T12:04:58;18.80;;;14.02;;
8232;SDS011;4157;48.074;9.952;2022-10-13T12:07:27;26.17;;;14.38;;
8232;SDS011;4157;48.074;9.952;2022-10-13T12:09:56;22.42;;;14.15;;
8232;SDS011;4157;48.074;9.952;2022-10-13T12:12:24;23.23;;;14.60;;
8232;SDS011;4157;48.074;9.952;2022-10-13T12:14:53;24.17;;;14.80;;
8232;SDS011;4157;48.074;9.952;2022-10-13T12:17:27;27.77;;;15.48;;
8232;SDS011;4157;48.074;9.952;2022-10-13T12:19:56;23.20;;;14.77;;
8232;SDS011;4157;48.074;9.952;2022-10-13T12:22:24;22.42;;;14.38;;
8232;SDS011;4157;48.074;9.952;2022-10-13T12:24:55;21.30;;;13.98;;
8232;SDS011;4157;48.074;9.952;2022-10-13T12:27:24;20.35;;;13.75;;
8232;SDS011;4157;48.074;9.952;2022-10-13T12:29:52;24.27;;;13.65;;
8232;SDS011;4157;48.074;9.952;2022-10-13T12:32:20;18.48;;;12.95;;
8232;SDS011;4157;48.074;9.952;2022-10-13T12:34:50;19.65;;;13.90;;
8232;SDS011;4157;48.074;9.952;2022-10-13T12:37:22;27.60;;;14.25;;
8232;SDS011;4157;48.074;9.952;2022-10-13T12:39:52;24.80;;;14.57;;
8232;SDS011;4157;48.074;9.952;2022-10-13T12:42:24;26.95;;;13.55;;
8232;SDS011;4157;48.074;9.952;2022-10-13T12:44:52;26.75;;;14.00;;
8232;SDS011;4157;48.074;9.952;2022-10-13T12:47:36;21.45;;;13.35;;
8232;SDS011;4157;48.074;9.952;2022-10-13T12:52:33;20.75;;;13.38;;
8232;SDS011;4157;48.074;9.952;2022-10-13T12:55:01;24.95;;;12.38;;
8232;SDS011;4157;48.074;9.952;2022-10-13T12:57:30;22.15;;;12.43;;
8232;SDS011;4157;48.074;9.952;2022-10-13T13:00:00;22.17;;;13.27;;
8232;SDS011;4157;48.074;9.952;2022-10-13T13:02:28;16.77;;;12.77;;
8232;SDS011;4157;48.074;9.952;2022-10-13T13:04:57;23.73;;;13.40;;
8232;SDS011;4157;48.074;9.952;2022-10-13T13:07:29;23.75;;;13.30;;
8232;SDS011;4157;48.074;9.952;2022-10-13T13:12:41;20.77;;;14.13;;
8232;SDS011;4157;48.074;9.952;2022-10-13T13:15:19;20.40;;;13.02;;
8232;SDS011;4157;48.074;9.952;2022-10-13T13:17:48;21.70;;;13.50;;
8232;SDS011;4157;48.074;9.952;2022-10-13T13:20:19;21.15;;;12.13;;
8232;SDS011;4157;48.074;9.952;2022-10-13T13:22:47;21.00;;;12.85;;
8232;SDS011;4157;48.074;9.952;2022-10-13T13:25:16;20.23;;;11.80;;
8232;SDS011;4157;48.074;9.952;2022-10-13T13:27:45;20.98;;;12.77;;
8232;SDS011;4157;48.074;9.952;2022-10-13T13:30:16;18.25;;;13.63;;
8232;SDS011;4157;48.074;9.952;2022-10-13T13:32:44;25.05;;;17.98;;
8232;SDS011;4157;48.074;9.952;2022-10-13T13:35:12;30.20;;;18.00;;
8232;SDS011;4157;48.074;9.952;2022-10-13T13:37:40;51.20;;;36.35;;
8232;SDS011;4157;48.074;9.952;2022-10-13T13:40:13;31.35;;;23.73;;
8232;SDS011;4157;48.074;9.952;2022-10-13T13:42:41;24.05;;;20.10;;
8232;SDS011;4157;48.074;9.952;2022-10-13T13:45:12;23.55;;;13.30;;
8232;SDS011;4157;48.074;9.952;2022-10-13T13:47:40;21.23;;;12.93;;
8232;SDS011;4157;48.074;9.952;2022-10-13T13:50:09;19.75;;;13.07;;
8232;SDS011;4157;48.074;9.952;2022-10-13T13:52:41;19.63;;;13.20;;
8232;SDS011;4157;48.074;9.952;2022-10-13T13:55:09;21.45;;;11.82;;
8232;SDS011;4157;48.074;9.952;2022-10-13T13:57:36;20.73;;;12.68;;
8232;SDS011;4157;48.074;9.952;2022-10-13T14:00:04;15.70;;;10.50;;
8232;SDS011;4157;48.074;9.952;2022-10-13T14:02:38;16.92;;;12.27;;
8232;SDS011;4157;48.074;9.952;2022-10-13T14:05:07;17.52;;;11.70;;
8232;SDS011;4157;48.074;9.952;2022-10-13T14:07:35;17.80;;;11.27;;
8232;SDS011;4157;48.074;9.952;2022-10-13T14:10:03;20.15;;;10.85;;
8232;SDS011;4157;48.074;9.952;2022-10-13T14:12:31;21.02;;;11.30;;
8232;SDS011;4157;48.074;9.952;2022-10-13T14:14:59;19.85;;;11.68;;
8232;SDS011;4157;48.074;9.952;2022-10-13T14:17:27;19.08;;;11.50;;
8232;SDS011;4157;48.074;9.952;2022-10-13T14:19:56;18.65;;;11.95;;
8232;SDS011;4157;48.074;9.952;2022-10-13T14:22:24;13.73;;;10.50;;
8232;SDS011;4157;48.074;9.952;2022-10-13T14:24:52;19.48;;;10.55;;
8232;SDS011;4157;48.074;9.952;2022-10-13T14:27:19;22.75;;;14.68;;
8232;SDS011;4157;48.074;9.952;2022-10-13T14:29:47;17.17;;;10.80;;
8232;SDS011;4157;48.074;9.952;2022-10-13T14:32:15;18.13;;;10.85;;
8232;SDS011;4157;48.074;9.952;2022-10-13T14:34:43;18.63;;;11.35;;
8232;SDS011;4157;48.074;9.952;2022-10-13T14:37:12;20.58;;;11.30;;
8232;SDS011;4157;48.074;9.952;2022-10-13T14:39:39;16.42;;;10.57;;
8232;SDS011;4157;48.074;9.952;2022-10-13T14:42:07;14.18;;;9.80;;
8232;SDS011;4157;48.074;9.952;2022-10-13T14:44:35;21.67;;;10.68;;
8232;SDS011;4157;48.074;9.952;2022-10-13T14:47:02;20.35;;;10.60;;
8232;SDS011;4157;48.074;9.952;2022-10-13T14:49:30;14.15;;;10.18;;
8232;SDS011;4157;48.074;9.952;2022-10-13T14:51:58;18.45;;;10.48;;
8232;SDS011;4157;48.074;9.952;2022-10-13T14:54:28;18.88;;;10.93;;
8232;SDS011;4157;48.074;9.952;2022-10-13T14:56:55;19.95;;;10.77;;
8232;SDS011;4157;48.074;9.952;2022-10-13T14:59:25;15.85;;;10.30;;
8232;SDS011;4157;48.074;9.952;2022-10-13T15:01:53;16.35;;;10.52;;
8232;SDS011;4157;48.074;9.952;2022-10-13T15:04:20;20.00;;;12.40;;
8232;SDS011;4157;48.074;9.952;2022-10-13T15:06:48;18.40;;;11.48;;
8232;SDS011;4157;48.074;9.952;2022-10-13T15:09:16;18.80;;;11.35;;
8232;SDS011;4157;48.074;9.952;2022-10-13T15:11:45;19.10;;;11.10;;
8232;SDS011;4157;48.074;9.952;2022-10-13T15:14:12;16.08;;;10.35;;
8232;SDS011;4157;48.074;9.952;2022-10-13T15:16:40;18.60;;;11.20;;
8232;SDS011;4157;48.074;9.952;2022-10-13T15:19:08;16.02;;;10.95;;